sensor_id;sensor_type;location;lat;lon;timestamp;P1;durP1;ratioP1;P2;durP2;ratioP2
79124;SDS011;68527;39.470;-0.376;2023-06-22T00:00:51;3.60;;;2.40;;
79124;SDS011;68527;39.470;-0.376;2023-06-22T00:03:17;3.00;;;2.00;;
79124;SDS011;68527;39.470;-0.376;2023-06-22T00:05:43;3.90;;;2.10;;
79124;SDS011;68527;39.470;-0.376;2023-06-22T00:08:09;4.20;;;2.20;;
79124;SDS011;68527;39.470;-0.376;2023-06-22T00:10:35;2.50;;;1.90;;
79124;SDS011;68527;39.470;-0.376;2023-06-22T00:13:01;3.00;;;1.90;;
79124;SDS011;68527;39.470;-0.376;2023-06-22T00:15:26;4.10;;;2.20;;
79124;SDS011;68527;39.470;-0.376;2023-06-22T00:17:52;3.00;;;2.20;;
79124;SDS011;68527;39.470;-0.376;2023-06-22T00:20:18;3.10;;;2.30;;
79124;SDS011;68527;39.470;-0.376;2023-06-22T00:22:44;3.50;;;2.30;;
79124;SDS011;68527;39.470;-0.376;2023-06-22T00:25:10;3.30;;;2.30;;
79124;SDS011;68527;39.470;-0.376;2023-06-22T00:27:36;3.20;;;1.80;;
79124;SDS011;68527;39.470;-0.376;2023-06-22T00:30:01;3.00;;;2.00;;
79124;SDS011;68527;39.470;-0.376;2023-06-22T00:32:28;3.30;;;1.90;;
79124;SDS011;68527;39.470;-0.376;2023-06-22T00:34:53;3.00;;;2.10;;
79124;SDS011;68527;39.470;-0.376;2023-06-22T00:37:19;3.00;;;1.60;;
79124;SDS011;68527;39.470;-0.376;2023-06-22T00:39:47;3.20;;;2.00;;
79124;SDS011;68527;39.470;-0.376;2023-06-22T00:42:14;2.90;;;1.90;;
79124;SDS011;68527;39.470;-0.376;2023-06-22T00:44:39;2.60;;;1.90;;
79124;SDS011;68527;39.470;-0.376;2023-06-22T00:47:05;3.30;;;2.00;;
79124;SDS011;68527;39.470;-0.376;2023-06-22T00:49:31;3.90;;;2.30;;
79124;SDS011;68527;39.470;-0.376;2023-06-22T00:51:57;2.80;;;2.00;;
79124;SDS011;68527;39.470;-0.376;2023-06-22T00:54:23;3.30;;;1.90;;
79124;SDS011;68527;39.470;-0.376;2023-06-22T00:56:53;3.00;;;2.00;;
79124;SDS011;68527;39.470;-0.376;2023-06-22T00:59:23;3.50;;;2.50;;
79124;SDS011;68527;39.470;-0.376;2023-06-22T01:01:48;3.30;;;2.20;;
79124;SDS011;68527;39.470;-0.376;2023-06-22T01:04:15;3.30;;;2.00;;
79124;SDS011;68527;39.470;-0.376;2023-06-22T01:09:57;3.90;;;1.90;;
79124;SDS011;68527;39.470;-0.376;2023-06-22T01:12:26;3.40;;;1.70;;
79124;SDS011;68527;39.470;-0.376;2023-06-22T01:15:02;3.40;;;1.70;;
79124;SDS011;68527;39.470;-0.376;2023-06-22T01:17:34;2.20;;;1.50;;
79124;SDS011;68527;39.470;-0.376;2023-06-22T01:20:00;3.70;;;2.40;;
79124;SDS011;68527;39.470;-0.376;2023-06-22T01:22:30;2.90;;;2.00;;
79124;SDS011;68527;39.470;-0.376;2023-06-22T01:25:12;3.20;;;2.20;;
79124;SDS011;68527;39.470;-0.376;2023-06-22T01:27:50;3.80;;;1.90;;
79124;SDS011;68527;39.470;-0.376;2023-06-22T01:30:41;4.00;;;1.80;;
79124;SDS011;68527;39.470;-0.376;2023-06-22T01:33:07;2.80;;;2.00;;
79124;SDS011;68527;39.470;-0.376;2023-06-22T01:35:35;3.60;;;1.90;;
79124;SDS011;68527;39.470;-0.376;2023-06-22T01:38:02;2.90;;;1.90;;
79124;SDS011;68527;39.470;-0.376;2023-06-22T01:40:28;4.10;;;1.90;;
79124;SDS011;68527;39.470;-0.376;2023-06-22T01:42:55;3.20;;;2.10;;
79124;SDS011;68527;39.470;-0.376;2023-06-22T01:45:20;2.20;;;1.60;;
79124;SDS011;68527;39.470;-0.376;2023-06-22T01:47:47;2.50;;;1.80;;
79124;SDS011;68527;39.470;-0.376;2023-06-22T01:50:12;2.50;;;1.60;;
79124;SDS011;68527;39.470;-0.376;2023-06-22T01:52:38;2.90;;;1.70;;
79124;SDS011;68527;39.470;-0.376;2023-06-22T01:55:04;3.10;;;1.90;;
79124;SDS011;68527;39.470;-0.376;2023-06-22T01:57:31;2.20;;;1.80;;
79124;SDS011;68527;39.470;-0.376;2023-06-22T02:00:01;2.70;;;1.60;;
79124;SDS011;68527;39.470;-0.376;2023-06-22T02:02:33;3.30;;;2.00;;
79124;SDS011;68527;39.470;-0.376;2023-06-22T02:05:05;2.70;;;1.80;;
79124;SDS011;68527;39.470;-0.376;2023-06-22T02:07:33;2.70;;;2.00;;
79124;SDS011;68527;39.470;-0.376;2023-06-22T02:10:02;3.10;;;2.00;;
79124;SDS011;68527;39.470;-0.376;2023-06-22T02:12:28;3.50;;;2.00;;
79124;SDS011;68527;39.470;-0.376;2023-06-22T02:14:54;2.90;;;1.90;;
79124;SDS011;68527;39.470;-0.376;2023-06-22T02:17:20;3.50;;;1.80;;
79124;SDS011;68527;39.470;-0.376;2023-06-22T02:19:46;2.40;;;1.60;;
79124;SDS011;68527;39.470;-0.376;2023-06-22T02:22:11;3.20;;;1.90;;
79124;SDS011;68527;39.470;-0.376;2023-06-22T02:24:40;2.20;;;1.60;;
79124;SDS011;68527;39.470;-0.376;2023-06-22T02:27:05;2.20;;;1.70;;
79124;SDS011;68527;39.470;-0.376;2023-06-22T02:29:32;2.90;;;1.80;;
79124;SDS011;68527;39.470;-0.376;2023-06-22T02:31:57;2.80;;;1.80;;
79124;SDS011;68527;39.470;-0.376;2023-06-22T02:34:23;2.80;;;2.00;;
79124;SDS011;68527;39.470;-0.376;2023-06-22T02:36:49;2.40;;;1.60;;
79124;SDS011;68527;39.470;-0.376;2023-06-22T02:39:21;2.70;;;1.90;;
79124;SDS011;68527;39.470;-0.376;2023-06-22T02:41:48;2.40;;;1.60;;
79124;SDS011;68527;39.470;-0.376;2023-06-22T02:44:15;2.70;;;1.70;;
79124;SDS011;68527;39.470;-0.376;2023-06-22T02:46:41;2.90;;;1.90;;
79124;SDS011;68527;39.470;-0.376;2023-06-22T02:49:06;2.50;;;1.80;;
79124;SDS011;68527;39.470;-0.376;2023-06-22T02:51:33;2.70;;;1.60;;
79124;SDS011;68527;39.470;-0.376;2023-06-22T02:53:59;2.70;;;1.50;;
79124;SDS011;68527;39.470;-0.376;2023-06-22T02:56:25;2.50;;;1.50;;
79124;SDS011;68527;39.470;-0.376;2023-06-22T02:58:51;2.20;;;1.50;;
79124;SDS011;68527;39.470;-0.376;2023-06-22T03:01:17;4.40;;;1.60;;
79124;SDS011;68527;39.470;-0.376;2023-06-22T03:03:48;2.50;;;1.70;;
79124;SDS011;68527;39.470;-0.376;2023-06-22T03:06:14;2.10;;;1.40;;
79124;SDS011;68527;39.470;-0.376;2023-06-22T03:08:39;2.80;;;1.50;;
79124;SDS011;68527;39.470;-0.376;2023-06-22T03:11:06;2.90;;;1.80;;
79124;SDS011;68527;39.470;-0.376;2023-06-22T03:13:33;2.80;;;1.90;;
79124;SDS011;68527;39.470;-0.376;2023-06-22T03:15:58;2.00;;;1.40;;
79124;SDS011;68527;39.470;-0.376;2023-06-22T03:18:24;2.50;;;1.70;;
79124;SDS011;68527;39.470;-0.376;2023-06-22T03:20:50;2.40;;;1.60;;
79124;SDS011;68527;39.470;-0.376;2023-06-22T03:23:15;2.70;;;1.80;;
79124;SDS011;68527;39.470;-0.376;2023-06-22T03:25:41;2.40;;;1.60;;
79124;SDS011;68527;39.470;-0.376;2023-06-22T03:28:09;2.60;;;1.70;;
79124;SDS011;68527;39.470;-0.376;2023-06-22T03:30:35;3.70;;;1.70;;
79124;SDS011;68527;39.470;-0.376;2023-06-22T03:33:00;2.50;;;1.40;;
79124;SDS011;68527;39.470;-0.376;2023-06-22T03:35:26;2.70;;;1.50;;
79124;SDS011;68527;39.470;-0.376;2023-06-22T03:37:51;2.40;;;1.50;;
79124;SDS011;68527;39.470;-0.376;2023-06-22T03:40:17;3.20;;;1.80;;
79124;SDS011;68527;39.470;-0.376;2023-06-22T03:42:43;2.40;;;1.40;;
79124;SDS011;68527;39.470;-0.376;2023-06-22T03:45:08;3.00;;;1.70;;
79124;SDS011;68527;39.470;-0.376;2023-06-22T03:47:35;2.50;;;1.70;;
79124;SDS011;68527;39.470;-0.376;2023-06-22T03:50:01;3.60;;;1.50;;
79124;SDS011;68527;39.470;-0.376;2023-06-22T03:52:28;3.30;;;1.80;;
79124;SDS011;68527;39.470;-0.376;2023-06-22T03:54:55;2.30;;;1.50;;
79124;SDS011;68527;39.470;-0.376;2023-06-22T03:57:20;2.70;;;1.80;;
79124;SDS011;68527;39.470;-0.376;2023-06-22T03:59:46;2.90;;;1.50;;
79124;SDS011;68527;39.470;-0.376;2023-06-22T04:02:11;2.40;;;1.60;;
79124;SDS011;68527;39.470;-0.376;2023-06-22T04:04:37;2.60;;;1.50;;
79124;SDS011;68527;39.470;-0.376;2023-06-22T04:07:04;2.10;;;1.50;;
79124;SDS011;68527;39.470;-0.376;2023-06-22T04:09:30;2.30;;;1.60;;
79124;SDS011;68527;39.470;-0.376;2023-06-22T04:11:55;2.20;;;1.60;;
79124;SDS011;68527;39.470;-0.376;2023-06-22T04:14:21;2.50;;;1.50;;
79124;SDS011;68527;39.470;-0.376;2023-06-22T04:16:47;2.50;;;1.60;;
79124;SDS011;68527;39.470;-0.376;2023-06-22T04:19:13;2.60;;;1.50;;
79124;SDS011;68527;39.470;-0.376;2023-06-22T04:21:44;2.70;;;1.60;;
79124;SDS011;68527;39.470;-0.376;2023-06-22T04:24:10;2.00;;;1.30;;
79124;SDS011;68527;39.470;-0.376;2023-06-22T04:26:36;2.10;;;1.60;;
79124;SDS011;68527;39.470;-0.376;2023-06-22T04:29:05;2.30;;;1.60;;
79124;SDS011;68527;39.470;-0.376;2023-06-22T04:31:31;1.90;;;1.40;;
79124;SDS011;68527;39.470;-0.376;2023-06-22T04:33:57;3.10;;;1.40;;
79124;SDS011;68527;39.470;-0.376;2023-06-22T04:36:31;3.00;;;1.70;;
79124;SDS011;68527;39.470;-0.376;2023-06-22T04:39:03;3.00;;;1.40;;
79124;SDS011;68527;39.470;-0.376;2023-06-22T04:41:38;2.40;;;1.70;;
79124;SDS011;68527;39.470;-0.376;2023-06-22T04:44:28;4.30;;;1.70;;
79124;SDS011;68527;39.470;-0.376;2023-06-22T04:46:53;2.50;;;1.40;;
79124;SDS011;68527;39.470;-0.376;2023-06-22T04:49:29;2.80;;;1.40;;
79124;SDS011;68527;39.470;-0.376;2023-06-22T04:52:05;2.80;;;1.60;;
79124;SDS011;68527;39.470;-0.376;2023-06-22T04:54:31;1.70;;;1.20;;
79124;SDS011;68527;39.470;-0.376;2023-06-22T04:57:04;2.20;;;1.10;;
79124;SDS011;68527;39.470;-0.376;2023-06-22T04:59:34;5.20;;;1.60;;
79124;SDS011;68527;39.470;-0.376;2023-06-22T05:02:01;2.20;;;1.30;;
79124;SDS011;68527;39.470;-0.376;2023-06-22T05:04:28;3.10;;;1.40;;
79124;SDS011;68527;39.470;-0.376;2023-06-22T05:06:56;3.20;;;1.80;;
79124;SDS011;68527;39.470;-0.376;2023-06-22T05:09:22;3.30;;;1.20;;
79124;SDS011;68527;39.470;-0.376;2023-06-22T05:11:49;3.30;;;1.70;;
79124;SDS011;68527;39.470;-0.376;2023-06-22T05:14:15;4.40;;;1.60;;
79124;SDS011;68527;39.470;-0.376;2023-06-22T05:16:41;2.80;;;1.70;;
79124;SDS011;68527;39.470;-0.376;2023-06-22T05:19:07;3.00;;;1.70;;
79124;SDS011;68527;39.470;-0.376;2023-06-22T05:21:32;2.40;;;1.90;;
79124;SDS011;68527;39.470;-0.376;2023-06-22T05:23:58;3.40;;;1.70;;
79124;SDS011;68527;39.470;-0.376;2023-06-22T05:26:32;3.90;;;1.40;;
79124;SDS011;68527;39.470;-0.376;2023-06-22T05:28:58;2.60;;;1.60;;
79124;SDS011;68527;39.470;-0.376;2023-06-22T05:31:27;2.20;;;1.30;;
79124;SDS011;68527;39.470;-0.376;2023-06-22T05:33:53;2.60;;;1.50;;
79124;SDS011;68527;39.470;-0.376;2023-06-22T05:36:19;3.90;;;1.90;;
79124;SDS011;68527;39.470;-0.376;2023-06-22T05:38:46;3.70;;;1.60;;
79124;SDS011;68527;39.470;-0.376;2023-06-22T05:41:12;3.70;;;1.90;;
79124;SDS011;68527;39.470;-0.376;2023-06-22T05:43:39;3.10;;;1.80;;
79124;SDS011;68527;39.470;-0.376;2023-06-22T05:46:05;4.80;;;2.00;;
79124;SDS011;68527;39.470;-0.376;2023-06-22T05:48:30;2.30;;;1.40;;
79124;SDS011;68527;39.470;-0.376;2023-06-22T05:50:56;2.70;;;1.50;;
79124;SDS011;68527;39.470;-0.376;2023-06-22T05:53:22;3.00;;;1.90;;
79124;SDS011;68527;39.470;-0.376;2023-06-22T05:55:48;3.20;;;2.00;;
79124;SDS011;68527;39.470;-0.376;2023-06-22T05:58:13;3.00;;;1.70;;
79124;SDS011;68527;39.470;-0.376;2023-06-22T06:00:40;3.30;;;1.90;;
79124;SDS011;68527;39.470;-0.376;2023-06-22T06:03:09;5.10;;;2.00;;
79124;SDS011;68527;39.470;-0.376;2023-06-22T06:05:35;4.60;;;2.40;;
79124;SDS011;68527;39.470;-0.376;2023-06-22T06:08:01;4.10;;;2.00;;
79124;SDS011;68527;39.470;-0.376;2023-06-22T06:10:30;3.80;;;1.80;;
79124;SDS011;68527;39.470;-0.376;2023-06-22T06:12:56;4.60;;;2.00;;
79124;SDS011;68527;39.470;-0.376;2023-06-22T06:15:22;4.70;;;2.00;;
79124;SDS011;68527;39.470;-0.376;2023-06-22T06:17:56;6.70;;;2.30;;
79124;SDS011;68527;39.470;-0.376;2023-06-22T06:20:23;5.00;;;2.30;;
79124;SDS011;68527;39.470;-0.376;2023-06-22T06:22:49;4.40;;;2.30;;
79124;SDS011;68527;39.470;-0.376;2023-06-22T06:25:16;5.50;;;2.60;;
79124;SDS011;68527;39.470;-0.376;2023-06-22T06:27:49;3.70;;;2.10;;
79124;SDS011;68527;39.470;-0.376;2023-06-22T06:30:16;3.90;;;2.00;;
79124;SDS011;68527;39.470;-0.376;2023-06-22T06:32:43;3.80;;;2.30;;
79124;SDS011;68527;39.470;-0.376;2023-06-22T06:35:11;6.10;;;2.50;;
79124;SDS011;68527;39.470;-0.376;2023-06-22T06:37:41;7.60;;;2.30;;
79124;SDS011;68527;39.470;-0.376;2023-06-22T06:40:11;4.00;;;2.10;;
79124;SDS011;68527;39.470;-0.376;2023-06-22T06:42:41;4.90;;;2.10;;
79124;SDS011;68527;39.470;-0.376;2023-06-22T06:45:10;3.70;;;2.10;;
79124;SDS011;68527;39.470;-0.376;2023-06-22T06:47:37;5.20;;;2.30;;
79124;SDS011;68527;39.470;-0.376;2023-06-22T06:50:05;5.30;;;2.20;;
79124;SDS011;68527;39.470;-0.376;2023-06-22T06:52:31;3.50;;;1.90;;
79124;SDS011;68527;39.470;-0.376;2023-06-22T06:54:58;3.50;;;1.70;;
79124;SDS011;68527;39.470;-0.376;2023-06-22T06:57:24;5.70;;;2.50;;
79124;SDS011;68527;39.470;-0.376;2023-06-22T06:59:54;3.50;;;2.10;;
79124;SDS011;68527;39.470;-0.376;2023-06-22T07:02:21;5.20;;;2.30;;
79124;SDS011;68527;39.470;-0.376;2023-06-22T07:04:47;3.70;;;2.40;;
79124;SDS011;68527;39.470;-0.376;2023-06-22T07:07:13;5.10;;;2.40;;
79124;SDS011;68527;39.470;-0.376;2023-06-22T07:09:38;3.80;;;2.20;;
79124;SDS011;68527;39.470;-0.376;2023-06-22T07:12:04;5.40;;;2.30;;
79124;SDS011;68527;39.470;-0.376;2023-06-22T07:14:31;4.30;;;2.50;;
79124;SDS011;68527;39.470;-0.376;2023-06-22T07:16:57;3.60;;;1.90;;
79124;SDS011;68527;39.470;-0.376;2023-06-22T07:19:26;6.30;;;2.00;;
79124;SDS011;68527;39.470;-0.376;2023-06-22T07:21:53;4.20;;;2.60;;
79124;SDS011;68527;39.470;-0.376;2023-06-22T07:24:19;5.50;;;2.20;;
79124;SDS011;68527;39.470;-0.376;2023-06-22T07:26:48;3.90;;;2.00;;
79124;SDS011;68527;39.470;-0.376;2023-06-22T07:29:16;4.30;;;2.00;;
79124;SDS011;68527;39.470;-0.376;2023-06-22T07:31:42;4.00;;;1.90;;
79124;SDS011;68527;39.470;-0.376;2023-06-22T07:34:08;4.10;;;2.00;;
79124;SDS011;68527;39.470;-0.376;2023-06-22T07:36:33;4.10;;;1.90;;
79124;SDS011;68527;39.470;-0.376;2023-06-22T07:39:01;3.10;;;2.10;;
79124;SDS011;68527;39.470;-0.376;2023-06-22T07:41:28;5.10;;;2.00;;
79124;SDS011;68527;39.470;-0.376;2023-06-22T07:43:53;3.40;;;1.80;;
79124;SDS011;68527;39.470;-0.376;2023-06-22T07:46:19;5.70;;;2.20;;
79124;SDS011;68527;39.470;-0.376;2023-06-22T07:48:45;4.10;;;2.30;;
79124;SDS011;68527;39.470;-0.376;2023-06-22T07:51:10;3.90;;;2.10;;
79124;SDS011;68527;39.470;-0.376;2023-06-22T07:53:39;3.80;;;2.30;;
79124;SDS011;68527;39.470;-0.376;2023-06-22T07:56:11;3.10;;;1.80;;
79124;SDS011;68527;39.470;-0.376;2023-06-22T07:58:36;3.70;;;2.10;;
79124;SDS011;68527;39.470;-0.376;2023-06-22T08:01:02;5.60;;;1.90;;
79124;SDS011;68527;39.470;-0.376;2023-06-22T08:03:28;3.70;;;2.10;;
79124;SDS011;68527;39.470;-0.376;2023-06-22T08:05:54;4.70;;;2.40;;
79124;SDS011;68527;39.470;-0.376;2023-06-22T08:08:20;4.20;;;2.00;;
79124;SDS011;68527;39.470;-0.376;2023-06-22T08:10:50;2.90;;;1.50;;
79124;SDS011;68527;39.470;-0.376;2023-06-22T08:13:16;3.10;;;1.70;;
79124;SDS011;68527;39.470;-0.376;2023-06-22T08:15:41;3.20;;;1.90;;
79124;SDS011;68527;39.470;-0.376;2023-06-22T08:18:07;3.30;;;2.10;;
79124;SDS011;68527;39.470;-0.376;2023-06-22T08:20:32;2.80;;;1.90;;
79124;SDS011;68527;39.470;-0.376;2023-06-22T08:22:58;3.10;;;2.00;;
79124;SDS011;68527;39.470;-0.376;2023-06-22T08:25:30;3.60;;;2.00;;
79124;SDS011;68527;39.470;-0.376;2023-06-22T08:27:56;2.40;;;1.70;;
79124;SDS011;68527;39.470;-0.376;2023-06-22T08:30:21;5.00;;;1.80;;
79124;SDS011;68527;39.470;-0.376;2023-06-22T08:32:47;2.30;;;1.70;;
79124;SDS011;68527;39.470;-0.376;2023-06-22T08:35:12;3.00;;;1.80;;
79124;SDS011;68527;39.470;-0.376;2023-06-22T08:37:38;3.20;;;2.10;;
79124;SDS011;68527;39.470;-0.376;2023-06-22T08:40:05;3.00;;;1.60;;
79124;SDS011;68527;39.470;-0.376;2023-06-22T08:42:37;3.20;;;1.80;;
79124;SDS011;68527;39.470;-0.376;2023-06-22T08:45:05;4.60;;;1.90;;
79124;SDS011;68527;39.470;-0.376;2023-06-22T08:47:31;3.60;;;2.10;;
79124;SDS011;68527;39.470;-0.376;2023-06-22T08:49:57;3.50;;;1.70;;
79124;SDS011;68527;39.470;-0.376;2023-06-22T08:52:23;4.20;;;2.00;;
79124;SDS011;68527;39.470;-0.376;2023-06-22T08:54:51;2.80;;;1.90;;
79124;SDS011;68527;39.470;-0.376;2023-06-22T08:57:17;2.80;;;1.90;;
79124;SDS011;68527;39.470;-0.376;2023-06-22T08:59:43;3.10;;;2.00;;
79124;SDS011;68527;39.470;-0.376;2023-06-22T09:02:08;3.70;;;2.30;;
79124;SDS011;68527;39.470;-0.376;2023-06-22T09:04:34;2.90;;;1.80;;
79124;SDS011;68527;39.470;-0.376;2023-06-22T09:07:02;2.90;;;1.60;;
79124;SDS011;68527;39.470;-0.376;2023-06-22T09:09:28;2.70;;;1.80;;
79124;SDS011;68527;39.470;-0.376;2023-06-22T09:11:54;4.60;;;2.10;;
79124;SDS011;68527;39.470;-0.376;2023-06-22T09:14:19;2.30;;;1.70;;
79124;SDS011;68527;39.470;-0.376;2023-06-22T09:16:45;2.60;;;1.80;;
79124;SDS011;68527;39.470;-0.376;2023-06-22T09:19:10;3.30;;;1.90;;
79124;SDS011;68527;39.470;-0.376;2023-06-22T09:21:36;3.10;;;1.60;;
79124;SDS011;68527;39.470;-0.376;2023-06-22T09:24:02;4.10;;;2.20;;
79124;SDS011;68527;39.470;-0.376;2023-06-22T09:26:31;3.20;;;1.80;;
79124;SDS011;68527;39.470;-0.376;2023-06-22T09:28:57;2.60;;;1.70;;
79124;SDS011;68527;39.470;-0.376;2023-06-22T09:31:23;3.90;;;1.80;;
79124;SDS011;68527;39.470;-0.376;2023-06-22T09:33:53;2.60;;;1.80;;
79124;SDS011;68527;39.470;-0.376;2023-06-22T09:36:19;3.00;;;1.60;;
79124;SDS011;68527;39.470;-0.376;2023-06-22T09:38:45;3.30;;;1.90;;
79124;SDS011;68527;39.470;-0.376;2023-06-22T09:41:11;3.60;;;1.90;;
79124;SDS011;68527;39.470;-0.376;2023-06-22T09:43:36;2.80;;;1.80;;
79124;SDS011;68527;39.470;-0.376;2023-06-22T09:46:02;3.00;;;1.90;;
79124;SDS011;68527;39.470;-0.376;2023-06-22T09:48:28;3.60;;;1.90;;
79124;SDS011;68527;39.470;-0.376;2023-06-22T09:50:55;4.30;;;2.10;;
79124;SDS011;68527;39.470;-0.376;2023-06-22T09:53:21;2.80;;;1.80;;
79124;SDS011;68527;39.470;-0.376;2023-06-22T09:55:46;3.10;;;1.90;;
79124;SDS011;68527;39.470;-0.376;2023-06-22T09:58:12;3.00;;;1.80;;
79124;SDS011;68527;39.470;-0.376;2023-06-22T10:00:38;3.10;;;1.90;;
79124;SDS011;68527;39.470;-0.376;2023-06-22T10:03:04;2.90;;;1.80;;
79124;SDS011;68527;39.470;-0.376;2023-06-22T10:05:29;3.20;;;1.70;;
79124;SDS011;68527;39.470;-0.376;2023-06-22T10:07:55;2.50;;;1.70;;
79124;SDS011;68527;39.470;-0.376;2023-06-22T10:10:20;4.10;;;1.90;;
79124;SDS011;68527;39.470;-0.376;2023-06-22T10:12:47;4.30;;;2.20;;
79124;SDS011;68527;39.470;-0.376;2023-06-22T10:15:19;2.90;;;2.10;;
79124;SDS011;68527;39.470;-0.376;2023-06-22T10:17:46;2.80;;;1.80;;
79124;SDS011;68527;39.470;-0.376;2023-06-22T10:20:12;3.50;;;1.70;;
79124;SDS011;68527;39.470;-0.376;2023-06-22T10:22:42;2.60;;;1.90;;
79124;SDS011;68527;39.470;-0.376;2023-06-22T10:25:09;3.10;;;1.80;;
79124;SDS011;68527;39.470;-0.376;2023-06-22T10:27:37;4.00;;;1.60;;
79124;SDS011;68527;39.470;-0.376;2023-06-22T10:30:07;4.50;;;2.10;;
79124;SDS011;68527;39.470;-0.376;2023-06-22T10:32:34;4.50;;;1.90;;
79124;SDS011;68527;39.470;-0.376;2023-06-22T10:35:00;3.00;;;1.90;;
79124;SDS011;68527;39.470;-0.376;2023-06-22T10:37:25;3.60;;;2.10;;
79124;SDS011;68527;39.470;-0.376;2023-06-22T10:39:51;4.20;;;1.90;;
79124;SDS011;68527;39.470;-0.376;2023-06-22T10:42:16;3.50;;;2.00;;
79124;SDS011;68527;39.470;-0.376;2023-06-22T10:44:42;2.80;;;2.00;;
79124;SDS011;68527;39.470;-0.376;2023-06-22T10:47:09;4.80;;;1.70;;
79124;SDS011;68527;39.470;-0.376;2023-06-22T10:49:37;2.70;;;1.90;;
79124;SDS011;68527;39.470;-0.376;2023-06-22T10:52:04;2.70;;;1.90;;
79124;SDS011;68527;39.470;-0.376;2023-06-22T10:54:32;2.30;;;1.60;;
79124;SDS011;68527;39.470;-0.376;2023-06-22T10:56:58;2.90;;;2.00;;
79124;SDS011;68527;39.470;-0.376;2023-06-22T10:59:24;2.40;;;1.60;;
79124;SDS011;68527;39.470;-0.376;2023-06-22T11:01:51;2.60;;;1.80;;
79124;SDS011;68527;39.470;-0.376;2023-06-22T11:04:18;4.30;;;1.90;;
79124;SDS011;68527;39.470;-0.376;2023-06-22T11:06:43;3.00;;;1.70;;
79124;SDS011;68527;39.470;-0.376;2023-06-22T11:09:09;3.10;;;1.70;;
79124;SDS011;68527;39.470;-0.376;2023-06-22T11:11:34;3.10;;;1.90;;
79124;SDS011;68527;39.470;-0.376;2023-06-22T11:14:00;3.00;;;1.60;;
79124;SDS011;68527;39.470;-0.376;2023-06-22T11:16:26;2.40;;;1.80;;
79124;SDS011;68527;39.470;-0.376;2023-06-22T11:18:52;3.00;;;2.10;;
79124;SDS011;68527;39.470;-0.376;2023-06-22T11:21:18;2.80;;;1.90;;
79124;SDS011;68527;39.470;-0.376;2023-06-22T11:23:43;5.40;;;1.80;;
79124;SDS011;68527;39.470;-0.376;2023-06-22T11:26:10;4.10;;;1.90;;
79124;SDS011;68527;39.470;-0.376;2023-06-22T11:28:36;3.00;;;1.80;;
79124;SDS011;68527;39.470;-0.376;2023-06-22T11:31:01;3.10;;;2.00;;
79124;SDS011;68527;39.470;-0.376;2023-06-22T11:33:27;3.20;;;1.90;;
79124;SDS011;68527;39.470;-0.376;2023-06-22T11:35:52;2.50;;;1.60;;
79124;SDS011;68527;39.470;-0.376;2023-06-22T11:38:18;2.90;;;2.00;;
79124;SDS011;68527;39.470;-0.376;2023-06-22T11:40:43;2.70;;;2.10;;
79124;SDS011;68527;39.470;-0.376;2023-06-22T11:43:09;2.60;;;2.00;;
79124;SDS011;68527;39.470;-0.376;2023-06-22T11:45:34;3.30;;;2.00;;
79124;SDS011;68527;39.470;-0.376;2023-06-22T11:48:00;3.40;;;1.70;;
79124;SDS011;68527;39.470;-0.376;2023-06-22T11:50:26;2.50;;;1.90;;
79124;SDS011;68527;39.470;-0.376;2023-06-22T11:52:51;2.40;;;1.60;;
79124;SDS011;68527;39.470;-0.376;2023-06-22T11:55:18;3.90;;;2.00;;
79124;SDS011;68527;39.470;-0.376;2023-06-22T11:57:56;3.70;;;2.10;;
79124;SDS011;68527;39.470;-0.376;2023-06-22T12:00:23;3.40;;;2.30;;
79124;SDS011;68527;39.470;-0.376;2023-06-22T12:02:50;2.40;;;1.60;;
79124;SDS011;68527;39.470;-0.376;2023-06-22T12:05:18;2.50;;;2.00;;
79124;SDS011;68527;39.470;-0.376;2023-06-22T12:07:46;3.10;;;1.90;;
79124;SDS011;68527;39.470;-0.376;2023-06-22T12:10:12;3.40;;;1.80;;
79124;SDS011;68527;39.470;-0.376;2023-06-22T12:12:37;3.00;;;1.70;;
79124;SDS011;68527;39.470;-0.376;2023-06-22T12:15:04;2.90;;;1.80;;
79124;SDS011;68527;39.470;-0.376;2023-06-22T12:17:30;5.60;;;2.10;;
79124;SDS011;68527;39.470;-0.376;2023-06-22T12:19:56;3.50;;;2.10;;
79124;SDS011;68527;39.470;-0.376;2023-06-22T12:22:21;4.50;;;2.10;;
79124;SDS011;68527;39.470;-0.376;2023-06-22T12:24:47;4.20;;;2.20;;
79124;SDS011;68527;39.470;-0.376;2023-06-22T12:27:13;5.30;;;2.20;;
79124;SDS011;68527;39.470;-0.376;2023-06-22T12:29:41;3.10;;;2.20;;
79124;SDS011;68527;39.470;-0.376;2023-06-22T12:32:07;3.80;;;2.10;;
79124;SDS011;68527;39.470;-0.376;2023-06-22T12:34:33;3.20;;;2.10;;
79124;SDS011;68527;39.470;-0.376;2023-06-22T12:36:58;4.70;;;2.20;;
79124;SDS011;68527;39.470;-0.376;2023-06-22T12:39:24;4.70;;;2.30;;
79124;SDS011;68527;39.470;-0.376;2023-06-22T12:41:49;3.10;;;2.00;;
79124;SDS011;68527;39.470;-0.376;2023-06-22T12:44:15;3.70;;;2.40;;
79124;SDS011;68527;39.470;-0.376;2023-06-22T12:46:41;3.40;;;2.40;;
79124;SDS011;68527;39.470;-0.376;2023-06-22T12:49:06;3.60;;;2.50;;
79124;SDS011;68527;39.470;-0.376;2023-06-22T12:51:32;3.50;;;2.30;;
79124;SDS011;68527;39.470;-0.376;2023-06-22T12:53:59;3.60;;;2.40;;
79124;SDS011;68527;39.470;-0.376;2023-06-22T12:56:24;3.30;;;2.00;;
79124;SDS011;68527;39.470;-0.376;2023-06-22T12:58:50;3.70;;;2.20;;
79124;SDS011;68527;39.470;-0.376;2023-06-22T13:01:15;3.00;;;2.20;;
79124;SDS011;68527;39.470;-0.376;2023-06-22T13:03:43;4.50;;;2.70;;
79124;SDS011;68527;39.470;-0.376;2023-06-22T13:06:08;4.10;;;2.20;;
79124;SDS011;68527;39.470;-0.376;2023-06-22T13:08:34;4.00;;;2.00;;
79124;SDS011;68527;39.470;-0.376;2023-06-22T13:10:59;3.70;;;2.20;;
79124;SDS011;68527;39.470;-0.376;2023-06-22T13:13:25;5.60;;;2.50;;
79124;SDS011;68527;39.470;-0.376;2023-06-22T13:15:52;2.80;;;2.10;;
79124;SDS011;68527;39.470;-0.376;2023-06-22T13:18:19;4.80;;;2.40;;
79124;SDS011;68527;39.470;-0.376;2023-06-22T13:20:44;3.60;;;2.50;;
79124;SDS011;68527;39.470;-0.376;2023-06-22T13:23:10;3.30;;;2.50;;
79124;SDS011;68527;39.470;-0.376;2023-06-22T13:25:36;3.70;;;2.50;;
79124;SDS011;68527;39.470;-0.376;2023-06-22T13:28:02;3.70;;;2.40;;
79124;SDS011;68527;39.470;-0.376;2023-06-22T13:30:27;4.80;;;2.40;;
79124;SDS011;68527;39.470;-0.376;2023-06-22T13:32:53;3.40;;;2.30;;
79124;SDS011;68527;39.470;-0.376;2023-06-22T13:35:19;4.40;;;2.10;;
79124;SDS011;68527;39.470;-0.376;2023-06-22T13:37:44;3.60;;;2.40;;
79124;SDS011;68527;39.470;-0.376;2023-06-22T13:40:10;4.40;;;2.80;;
79124;SDS011;68527;39.470;-0.376;2023-06-22T13:42:36;3.50;;;2.40;;
79124;SDS011;68527;39.470;-0.376;2023-06-22T13:45:02;3.90;;;2.40;;
79124;SDS011;68527;39.470;-0.376;2023-06-22T13:47:29;3.70;;;2.60;;
79124;SDS011;68527;39.470;-0.376;2023-06-22T13:49:55;3.60;;;2.40;;
79124;SDS011;68527;39.470;-0.376;2023-06-22T13:52:21;4.30;;;2.70;;
79124;SDS011;68527;39.470;-0.376;2023-06-22T13:54:46;4.60;;;2.90;;
79124;SDS011;68527;39.470;-0.376;2023-06-22T13:57:12;4.00;;;3.10;;
79124;SDS011;68527;39.470;-0.376;2023-06-22T13:59:37;4.30;;;3.00;;
79124;SDS011;68527;39.470;-0.376;2023-06-22T14:02:03;5.90;;;2.90;;
79124;SDS011;68527;39.470;-0.376;2023-06-22T14:04:30;3.90;;;2.90;;
79124;SDS011;68527;39.470;-0.376;2023-06-22T14:06:55;4.00;;;2.50;;
79124;SDS011;68527;39.470;-0.376;2023-06-22T14:09:21;3.50;;;2.70;;
79124;SDS011;68527;39.470;-0.376;2023-06-22T14:11:47;3.50;;;2.70;;
79124;SDS011;68527;39.470;-0.376;2023-06-22T14:14:12;4.70;;;3.00;;
79124;SDS011;68527;39.470;-0.376;2023-06-22T14:16:38;4.00;;;2.80;;
79124;SDS011;68527;39.470;-0.376;2023-06-22T14:19:03;4.00;;;2.50;;
79124;SDS011;68527;39.470;-0.376;2023-06-22T14:21:29;5.20;;;2.80;;
79124;SDS011;68527;39.470;-0.376;2023-06-22T14:23:58;4.10;;;2.80;;
79124;SDS011;68527;39.470;-0.376;2023-06-22T14:26:23;3.90;;;2.70;;
79124;SDS011;68527;39.470;-0.376;2023-06-22T14:28:49;4.20;;;3.10;;
79124;SDS011;68527;39.470;-0.376;2023-06-22T14:31:18;4.20;;;2.70;;
79124;SDS011;68527;39.470;-0.376;2023-06-22T14:33:47;3.40;;;2.50;;